sensor_id;sensor_type;location;lat;lon;timestamp;P1;durP1;ratioP1;P2;durP2;ratioP2
1779;SDS011;10019;46.670;14.260;2023-03-04T00:01:43;25.00;;;16.07;;
1779;SDS011;10019;46.670;14.260;2023-03-04T00:04:15;24.63;;;14.87;;
1779;SDS011;10019;46.670;14.260;2023-03-04T00:06:48;23.13;;;14.67;;
1779;SDS011;10019;46.670;14.260;2023-03-04T00:09:19;25.67;;;16.20;;
1779;SDS011;10019;46.670;14.260;2023-03-04T00:11:51;23.10;;;14.90;;
1779;SDS011;10019;46.670;14.260;2023-03-04T00:14:23;23.90;;;13.93;;
1779;SDS011;10019;46.670;14.260;2023-03-04T00:16:54;20.40;;;13.80;;
1779;SDS011;10019;46.670;14.260;2023-03-04T00:19:26;22.90;;;14.83;;
1779;SDS011;10019;46.670;14.260;2023-03-04T00:21:59;22.37;;;14.33;;
1779;SDS011;10019;46.670;14.260;2023-03-04T00:24:31;22.73;;;15.90;;
1779;SDS011;10019;46.670;14.260;2023-03-04T00:27:04;20.40;;;14.47;;
1779;SDS011;10019;46.670;14.260;2023-03-04T00:29:35;21.07;;;13.90;;
1779;SDS011;10019;46.670;14.260;2023-03-04T00:32:07;22.60;;;15.67;;
1779;SDS011;10019;46.670;14.260;2023-03-04T00:34:39;21.80;;;13.80;;
1779;SDS011;10019;46.670;14.260;2023-03-04T00:37:13;22.07;;;14.60;;
1779;SDS011;10019;46.670;14.260;2023-03-04T00:39:45;25.67;;;15.00;;
1779;SDS011;10019;46.670;14.260;2023-03-04T00:42:16;22.57;;;13.73;;
1779;SDS011;10019;46.670;14.260;2023-03-04T00:44:48;23.40;;;14.53;;
1779;SDS011;10019;46.670;14.260;2023-03-04T00:47:20;19.03;;;14.43;;
1779;SDS011;10019;46.670;14.260;2023-03-04T00:49:52;23.13;;;13.30;;
1779;SDS011;10019;46.670;14.260;2023-03-04T00:52:25;18.90;;;13.20;;
1779;SDS011;10019;46.670;14.260;2023-03-04T00:54:56;18.90;;;12.20;;
1779;SDS011;10019;46.670;14.260;2023-03-04T00:57:28;22.73;;;15.07;;
1779;SDS011;10019;46.670;14.260;2023-03-04T01:00:00;21.97;;;14.87;;
1779;SDS011;10019;46.670;14.260;2023-03-04T01:02:31;25.80;;;14.83;;
1779;SDS011;10019;46.670;14.260;2023-03-04T01:05:05;22.30;;;14.70;;
1779;SDS011;10019;46.670;14.260;2023-03-04T01:07:39;23.97;;;14.80;;
1779;SDS011;10019;46.670;14.260;2023-03-04T01:10:11;20.47;;;14.83;;
1779;SDS011;10019;46.670;14.260;2023-03-04T01:12:44;22.83;;;14.63;;
1779;SDS011;10019;46.670;14.260;2023-03-04T01:15:16;27.03;;;14.67;;
1779;SDS011;10019;46.670;14.260;2023-03-04T01:17:47;22.80;;;14.50;;
1779;SDS011;10019;46.670;14.260;2023-03-04T01:20:19;20.30;;;13.73;;
1779;SDS011;10019;46.670;14.260;2023-03-04T01:22:52;17.47;;;12.67;;
1779;SDS011;10019;46.670;14.260;2023-03-04T01:25:24;21.53;;;14.70;;
1779;SDS011;10019;46.670;14.260;2023-03-04T01:27:56;15.90;;;11.97;;
1779;SDS011;10019;46.670;14.260;2023-03-04T01:30:27;20.30;;;12.50;;
1779;SDS011;10019;46.670;14.260;2023-03-04T01:32:59;20.90;;;12.37;;
1779;SDS011;10019;46.670;14.260;2023-03-04T01:35:31;20.37;;;12.90;;
1779;SDS011;10019;46.670;14.260;2023-03-04T01:38:04;20.80;;;13.77;;
1779;SDS011;10019;46.670;14.260;2023-03-04T01:40:36;18.93;;;14.30;;
1779;SDS011;10019;46.670;14.260;2023-03-04T01:43:10;20.77;;;13.93;;
1779;SDS011;10019;46.670;14.260;2023-03-04T01:45:43;20.23;;;13.43;;
1779;SDS011;10019;46.670;14.260;2023-03-04T01:48:15;20.00;;;15.17;;
1779;SDS011;10019;46.670;14.260;2023-03-04T01:50:49;19.23;;;12.73;;
1779;SDS011;10019;46.670;14.260;2023-03-04T01:53:22;20.20;;;13.53;;
1779;SDS011;10019;46.670;14.260;2023-03-04T01:55:56;18.13;;;13.13;;
1779;SDS011;10019;46.670;14.260;2023-03-04T01:58:29;19.77;;;12.80;;
1779;SDS011;10019;46.670;14.260;2023-03-04T02:01:01;21.17;;;12.40;;
1779;SDS011;10019;46.670;14.260;2023-03-04T02:03:33;20.77;;;12.90;;
1779;SDS011;10019;46.670;14.260;2023-03-04T02:06:05;22.07;;;13.83;;
1779;SDS011;10019;46.670;14.260;2023-03-04T02:08:38;17.90;;;12.93;;
1779;SDS011;10019;46.670;14.260;2023-03-04T02:11:10;21.10;;;13.87;;
1779;SDS011;10019;46.670;14.260;2023-03-04T02:13:42;24.67;;;13.37;;
1779;SDS011;10019;46.670;14.260;2023-03-04T02:16:13;22.90;;;13.57;;
1779;SDS011;10019;46.670;14.260;2023-03-04T02:18:45;19.87;;;13.27;;
1779;SDS011;10019;46.670;14.260;2023-03-04T02:21:18;20.23;;;12.83;;
1779;SDS011;10019;46.670;14.260;2023-03-04T02:23:56;20.00;;;13.67;;
1779;SDS011;10019;46.670;14.260;2023-03-04T02:26:32;26.63;;;14.23;;
1779;SDS011;10019;46.670;14.260;2023-03-04T02:29:05;19.87;;;14.03;;
1779;SDS011;10019;46.670;14.260;2023-03-04T02:31:37;14.20;;;10.23;;
1779;SDS011;10019;46.670;14.260;2023-03-04T02:34:11;19.33;;;11.23;;
1779;SDS011;10019;46.670;14.260;2023-03-04T02:36:45;20.10;;;11.63;;
1779;SDS011;10019;46.670;14.260;2023-03-04T02:39:21;18.57;;;11.50;;
1779;SDS011;10019;46.670;14.260;2023-03-04T02:41:55;18.83;;;11.20;;
1779;SDS011;10019;46.670;14.260;2023-03-04T02:44:27;17.27;;;12.07;;
1779;SDS011;10019;46.670;14.260;2023-03-04T02:47:00;16.53;;;10.90;;
1779;SDS011;10019;46.670;14.260;2023-03-04T02:49:32;16.70;;;11.70;;
1779;SDS011;10019;46.670;14.260;2023-03-04T02:52:04;15.60;;;11.70;;
1779;SDS011;10019;46.670;14.260;2023-03-04T02:54:38;20.20;;;11.40;;
1779;SDS011;10019;46.670;14.260;2023-03-04T02:57:12;17.87;;;11.97;;
1779;SDS011;10019;46.670;14.260;2023-03-04T02:59:46;17.93;;;11.47;;
1779;SDS011;10019;46.670;14.260;2023-03-04T03:02:17;20.70;;;11.70;;
1779;SDS011;10019;46.670;14.260;2023-03-04T03:04:49;13.23;;;10.30;;
1779;SDS011;10019;46.670;14.260;2023-03-04T03:07:21;15.73;;;10.47;;
1779;SDS011;10019;46.670;14.260;2023-03-04T03:09:52;16.90;;;11.93;;
1779;SDS011;10019;46.670;14.260;2023-03-04T03:12:25;17.07;;;12.47;;
1779;SDS011;10019;46.670;14.260;2023-03-04T03:14:57;17.77;;;11.17;;
1779;SDS011;10019;46.670;14.260;2023-03-04T03:17:29;19.80;;;11.17;;
1779;SDS011;10019;46.670;14.260;2023-03-04T03:20:01;15.10;;;10.23;;
1779;SDS011;10019;46.670;14.260;2023-03-04T03:22:33;13.90;;;10.67;;
1779;SDS011;10019;46.670;14.260;2023-03-04T03:25:05;14.40;;;10.20;;
1779;SDS011;10019;46.670;14.260;2023-03-04T03:27:39;11.97;;;9.37;;
1779;SDS011;10019;46.670;14.260;2023-03-04T03:30:11;16.73;;;9.67;;
1779;SDS011;10019;46.670;14.260;2023-03-04T03:32:44;12.17;;;8.97;;
1779;SDS011;10019;46.670;14.260;2023-03-04T03:35:16;15.70;;;9.33;;
1779;SDS011;10019;46.670;14.260;2023-03-04T03:37:47;14.20;;;9.93;;
1779;SDS011;10019;46.670;14.260;2023-03-04T03:40:19;13.97;;;9.90;;
1779;SDS011;10019;46.670;14.260;2023-03-04T03:42:52;14.67;;;8.67;;
1779;SDS011;10019;46.670;14.260;2023-03-04T03:45:24;15.40;;;10.07;;
1779;SDS011;10019;46.670;14.260;2023-03-04T03:47:55;15.70;;;9.93;;
1779;SDS011;10019;46.670;14.260;2023-03-04T03:50:27;15.80;;;9.87;;
1779;SDS011;10019;46.670;14.260;2023-03-04T03:52:59;15.67;;;9.63;;
1779;SDS011;10019;46.670;14.260;2023-03-04T03:55:30;13.10;;;9.00;;
1779;SDS011;10019;46.670;14.260;2023-03-04T03:58:04;11.83;;;8.13;;
1779;SDS011;10019;46.670;14.260;2023-03-04T04:00:35;11.67;;;8.63;;
1779;SDS011;10019;46.670;14.260;2023-03-04T04:03:08;13.57;;;9.63;;
1779;SDS011;10019;46.670;14.260;2023-03-04T04:05:41;15.07;;;9.10;;
1779;SDS011;10019;46.670;14.260;2023-03-04T04:08:13;13.57;;;9.10;;
1779;SDS011;10019;46.670;14.260;2023-03-04T04:10:45;14.70;;;9.40;;
1779;SDS011;10019;46.670;14.260;2023-03-04T04:13:18;13.43;;;8.90;;
1779;SDS011;10019;46.670;14.260;2023-03-04T04:15:50;14.53;;;9.30;;
1779;SDS011;10019;46.670;14.260;2023-03-04T04:18:22;13.97;;;9.50;;
1779;SDS011;10019;46.670;14.260;2023-03-04T04:20:54;13.33;;;8.10;;
1779;SDS011;10019;46.670;14.260;2023-03-04T04:23:26;16.37;;;9.60;;
1779;SDS011;10019;46.670;14.260;2023-03-04T04:25:58;15.17;;;8.00;;
1779;SDS011;10019;46.670;14.260;2023-03-04T04:28:31;11.00;;;8.20;;
1779;SDS011;10019;46.670;14.260;2023-03-04T04:31:05;19.20;;;9.30;;
1779;SDS011;10019;46.670;14.260;2023-03-04T04:33:37;16.07;;;9.70;;
1779;SDS011;10019;46.670;14.260;2023-03-04T04:36:11;14.60;;;9.13;;
1779;SDS011;10019;46.670;14.260;2023-03-04T04:38:43;10.57;;;7.73;;
1779;SDS011;10019;46.670;14.260;2023-03-04T04:41:17;14.03;;;8.87;;
1779;SDS011;10019;46.670;14.260;2023-03-04T04:43:52;21.50;;;8.60;;
1779;SDS011;10019;46.670;14.260;2023-03-04T04:46:24;12.03;;;8.83;;
1779;SDS011;10019;46.670;14.260;2023-03-04T04:48:56;16.33;;;10.80;;
1779;SDS011;10019;46.670;14.260;2023-03-04T04:51:28;16.63;;;9.17;;
1779;SDS011;10019;46.670;14.260;2023-03-04T04:54:00;13.97;;;10.03;;
1779;SDS011;10019;46.670;14.260;2023-03-04T04:56:32;14.83;;;8.80;;
1779;SDS011;10019;46.670;14.260;2023-03-04T04:59:05;13.77;;;9.33;;
1779;SDS011;10019;46.670;14.260;2023-03-04T05:01:37;16.30;;;9.30;;
1779;SDS011;10019;46.670;14.260;2023-03-04T05:04:10;17.57;;;9.37;;
1779;SDS011;10019;46.670;14.260;2023-03-04T05:06:42;15.07;;;8.60;;
1779;SDS011;10019;46.670;14.260;2023-03-04T05:09:13;12.67;;;8.47;;
1779;SDS011;10019;46.670;14.260;2023-03-04T05:11:45;13.93;;;8.70;;
1779;SDS011;10019;46.670;14.260;2023-03-04T05:14:18;14.30;;;8.53;;
1779;SDS011;10019;46.670;14.260;2023-03-04T05:16:50;13.53;;;9.77;;
1779;SDS011;10019;46.670;14.260;2023-03-04T05:19:22;13.03;;;9.37;;
1779;SDS011;10019;46.670;14.260;2023-03-04T05:21:54;14.87;;;9.33;;
1779;SDS011;10019;46.670;14.260;2023-03-04T05:24:26;12.80;;;9.63;;
1779;SDS011;10019;46.670;14.260;2023-03-04T05:26:57;16.93;;;8.97;;
1779;SDS011;10019;46.670;14.260;2023-03-04T05:29:30;12.67;;;9.17;;
1779;SDS011;10019;46.670;14.260;2023-03-04T05:32:02;14.17;;;8.37;;
1779;SDS011;10019;46.670;14.260;2023-03-04T05:34:34;12.97;;;8.40;;
1779;SDS011;10019;46.670;14.260;2023-03-04T05:37:06;12.90;;;9.13;;
1779;SDS011;10019;46.670;14.260;2023-03-04T05:39:37;11.47;;;8.97;;
1779;SDS011;10019;46.670;14.260;2023-03-04T05:42:09;17.97;;;8.83;;
1779;SDS011;10019;46.670;14.260;2023-03-04T05:44:43;15.77;;;9.53;;
1779;SDS011;10019;46.670;14.260;2023-03-04T05:47:15;12.30;;;7.50;;
1779;SDS011;10019;46.670;14.260;2023-03-04T05:49:46;10.20;;;7.53;;
1779;SDS011;10019;46.670;14.260;2023-03-04T05:52:18;12.17;;;7.60;;
1779;SDS011;10019;46.670;14.260;2023-03-04T05:54:50;16.00;;;9.13;;
1779;SDS011;10019;46.670;14.260;2023-03-04T05:57:21;15.83;;;9.40;;
1779;SDS011;10019;46.670;14.260;2023-03-04T05:59:54;14.67;;;9.80;;
1779;SDS011;10019;46.670;14.260;2023-03-04T06:02:26;15.47;;;9.80;;
1779;SDS011;10019;46.670;14.260;2023-03-04T06:04:58;16.30;;;9.60;;
1779;SDS011;10019;46.670;14.260;2023-03-04T06:07:29;16.57;;;9.53;;
1779;SDS011;10019;46.670;14.260;2023-03-04T06:10:01;13.73;;;8.03;;
1779;SDS011;10019;46.670;14.260;2023-03-04T06:12:33;9.50;;;7.70;;
1779;SDS011;10019;46.670;14.260;2023-03-04T06:15:07;17.07;;;8.93;;
1779;SDS011;10019;46.670;14.260;2023-03-04T06:17:40;13.53;;;7.20;;
1779;SDS011;10019;46.670;14.260;2023-03-04T06:20:12;13.63;;;7.87;;
1779;SDS011;10019;46.670;14.260;2023-03-04T06:22:44;12.20;;;8.40;;
1779;SDS011;10019;46.670;14.260;2023-03-04T06:25:16;15.17;;;9.70;;
1779;SDS011;10019;46.670;14.260;2023-03-04T06:27:49;13.53;;;8.63;;
1779;SDS011;10019;46.670;14.260;2023-03-04T06:30:22;15.77;;;10.13;;
1779;SDS011;10019;46.670;14.260;2023-03-04T06:32:54;15.60;;;9.57;;
1779;SDS011;10019;46.670;14.260;2023-03-04T06:35:25;13.63;;;9.17;;
1779;SDS011;10019;46.670;14.260;2023-03-04T06:37:57;12.80;;;8.90;;
1779;SDS011;10019;46.670;14.260;2023-03-04T06:40:29;12.20;;;8.53;;
1779;SDS011;10019;46.670;14.260;2023-03-04T06:43:01;14.97;;;9.60;;
1779;SDS011;10019;46.670;14.260;2023-03-04T06:45:34;14.93;;;8.50;;
1779;SDS011;10019;46.670;14.260;2023-03-04T06:48:05;17.57;;;10.50;;
1779;SDS011;10019;46.670;14.260;2023-03-04T06:50:38;15.77;;;8.97;;
1779;SDS011;10019;46.670;14.260;2023-03-04T06:53:10;16.07;;;8.87;;
1779;SDS011;10019;46.670;14.260;2023-03-04T06:55:41;17.17;;;10.17;;
1779;SDS011;10019;46.670;14.260;2023-03-04T06:58:13;14.37;;;9.57;;
1779;SDS011;10019;46.670;14.260;2023-03-04T07:00:47;14.50;;;8.83;;
1779;SDS011;10019;46.670;14.260;2023-03-04T07:03:19;13.50;;;9.10;;
1779;SDS011;10019;46.670;14.260;2023-03-04T07:05:51;14.03;;;9.43;;
1779;SDS011;10019;46.670;14.260;2023-03-04T07:08:22;14.57;;;9.03;;
1779;SDS011;10019;46.670;14.260;2023-03-04T07:10:54;13.73;;;8.10;;
1779;SDS011;10019;46.670;14.260;2023-03-04T07:13:26;16.20;;;9.57;;
1779;SDS011;10019;46.670;14.260;2023-03-04T07:15:59;15.43;;;9.03;;
1779;SDS011;10019;46.670;14.260;2023-03-04T07:18:31;15.63;;;9.40;;
1779;SDS011;10019;46.670;14.260;2023-03-04T07:21:03;14.60;;;8.83;;
1779;SDS011;10019;46.670;14.260;2023-03-04T07:23:35;16.20;;;8.77;;
1779;SDS011;10019;46.670;14.260;2023-03-04T07:26:07;10.60;;;8.50;;
1779;SDS011;10019;46.670;14.260;2023-03-04T07:28:39;13.57;;;8.83;;
1779;SDS011;10019;46.670;14.260;2023-03-04T07:31:20;15.80;;;9.33;;
1779;SDS011;10019;46.670;14.260;2023-03-04T07:33:54;14.07;;;8.40;;
1779;SDS011;10019;46.670;14.260;2023-03-04T07:36:26;15.03;;;9.43;;
1779;SDS011;10019;46.670;14.260;2023-03-04T07:38:58;12.97;;;8.10;;
1779;SDS011;10019;46.670;14.260;2023-03-04T07:41:30;15.30;;;10.20;;
1779;SDS011;10019;46.670;14.260;2023-03-04T07:44:05;12.70;;;8.73;;
1779;SDS011;10019;46.670;14.260;2023-03-04T07:46:39;13.80;;;8.60;;
1779;SDS011;10019;46.670;14.260;2023-03-04T07:49:11;13.60;;;7.77;;
1779;SDS011;10019;46.670;14.260;2023-03-04T07:51:43;11.80;;;8.10;;
1779;SDS011;10019;46.670;14.260;2023-03-04T07:54:15;12.10;;;8.57;;
1779;SDS011;10019;46.670;14.260;2023-03-04T07:56:49;12.50;;;8.33;;
1779;SDS011;10019;46.670;14.260;2023-03-04T07:59:22;19.07;;;10.27;;
1779;SDS011;10019;46.670;14.260;2023-03-04T08:01:56;18.23;;;9.07;;
1779;SDS011;10019;46.670;14.260;2023-03-04T08:04:27;12.40;;;8.63;;
1779;SDS011;10019;46.670;14.260;2023-03-04T08:06:59;13.80;;;9.17;;
1779;SDS011;10019;46.670;14.260;2023-03-04T08:09:31;13.17;;;7.87;;
1779;SDS011;10019;46.670;14.260;2023-03-04T08:12:02;12.80;;;8.70;;
1779;SDS011;10019;46.670;14.260;2023-03-04T08:14:34;15.67;;;9.43;;
1779;SDS011;10019;46.670;14.260;2023-03-04T08:17:07;16.50;;;7.87;;
1779;SDS011;10019;46.670;14.260;2023-03-04T08:19:39;12.50;;;8.70;;
1779;SDS011;10019;46.670;14.260;2023-03-04T08:22:11;11.77;;;8.47;;
1779;SDS011;10019;46.670;14.260;2023-03-04T08:24:43;15.63;;;8.70;;
1779;SDS011;10019;46.670;14.260;2023-03-04T08:27:14;13.27;;;8.27;;
1779;SDS011;10019;46.670;14.260;2023-03-04T08:29:46;9.90;;;6.90;;
1779;SDS011;10019;46.670;14.260;2023-03-04T08:32:19;10.53;;;7.27;;
1779;SDS011;10019;46.670;14.260;2023-03-04T08:34:51;12.80;;;7.27;;
1779;SDS011;10019;46.670;14.260;2023-03-04T08:37:25;14.93;;;8.50;;
1779;SDS011;10019;46.670;14.260;2023-03-04T08:39:56;14.63;;;7.33;;
1779;SDS011;10019;46.670;14.260;2023-03-04T08:42:28;11.50;;;7.30;;
1779;SDS011;10019;46.670;14.260;2023-03-04T08:45:00;13.00;;;6.50;;
1779;SDS011;10019;46.670;14.260;2023-03-04T08:47:33;10.43;;;6.77;;
1779;SDS011;10019;46.670;14.260;2023-03-04T08:50:05;15.13;;;7.07;;
1779;SDS011;10019;46.670;14.260;2023-03-04T08:52:37;7.73;;;5.43;;
1779;SDS011;10019;46.670;14.260;2023-03-04T08:55:09;8.70;;;7.23;;
1779;SDS011;10019;46.670;14.260;2023-03-04T08:57:41;8.30;;;5.93;;
1779;SDS011;10019;46.670;14.260;2023-03-04T09:00:13;8.50;;;6.07;;
1779;SDS011;10019;46.670;14.260;2023-03-04T09:02:46;12.93;;;6.27;;
1779;SDS011;10019;46.670;14.260;2023-03-04T09:05:18;13.30;;;5.83;;
1779;SDS011;10019;46.670;14.260;2023-03-04T09:07:49;10.90;;;6.60;;
1779;SDS011;10019;46.670;14.260;2023-03-04T09:10:21;9.43;;;5.07;;
1779;SDS011;10019;46.670;14.260;2023-03-04T09:12:53;10.63;;;5.80;;
1779;SDS011;10019;46.670;14.260;2023-03-04T09:15:25;8.43;;;5.50;;
1779;SDS011;10019;46.670;14.260;2023-03-04T09:17:58;9.60;;;7.17;;
1779;SDS011;10019;46.670;14.260;2023-03-04T09:20:32;7.90;;;5.87;;
1779;SDS011;10019;46.670;14.260;2023-03-04T09:23:03;8.97;;;5.93;;
1779;SDS011;10019;46.670;14.260;2023-03-04T09:25:35;9.93;;;6.57;;
1779;SDS011;10019;46.670;14.260;2023-03-04T09:28:07;9.10;;;6.63;;
1779;SDS011;10019;46.670;14.260;2023-03-04T09:30:39;9.53;;;6.13;;
1779;SDS011;10019;46.670;14.260;2023-03-04T09:33:12;12.17;;;6.80;;
1779;SDS011;10019;46.670;14.260;2023-03-04T09:35:44;7.60;;;6.10;;
1779;SDS011;10019;46.670;14.260;2023-03-04T09:38:18;9.83;;;5.83;;
1779;SDS011;10019;46.670;14.260;2023-03-04T09:40:51;7.67;;;5.50;;
1779;SDS011;10019;46.670;14.260;2023-03-04T09:43:23;13.00;;;6.67;;
1779;SDS011;10019;46.670;14.260;2023-03-04T09:46:00;11.33;;;5.43;;
1779;SDS011;10019;46.670;14.260;2023-03-04T09:48:38;9.00;;;6.00;;
1779;SDS011;10019;46.670;14.260;2023-03-04T09:51:16;10.47;;;5.83;;
1779;SDS011;10019;46.670;14.260;2023-03-04T09:53:57;7.00;;;4.60;;
1779;SDS011;10019;46.670;14.260;2023-03-04T09:56:37;9.27;;;6.97;;
1779;SDS011;10019;46.670;14.260;2023-03-04T09:59:13;6.60;;;5.77;;
1779;SDS011;10019;46.670;14.260;2023-03-04T10:01:47;8.93;;;5.07;;
1779;SDS011;10019;46.670;14.260;2023-03-04T10:04:25;13.03;;;6.07;;
1779;SDS011;10019;46.670;14.260;2023-03-04T10:07:01;11.70;;;6.40;;
1779;SDS011;10019;46.670;14.260;2023-03-04T10:09:39;8.90;;;5.93;;
1779;SDS011;10019;46.670;14.260;2023-03-04T10:12:14;8.40;;;5.63;;
1779;SDS011;10019;46.670;14.260;2023-03-04T10:14:48;9.17;;;5.90;;
1779;SDS011;10019;46.670;14.260;2023-03-04T10:17:23;8.77;;;5.90;;
1779;SDS011;10019;46.670;14.260;2023-03-04T10:20:02;8.23;;;6.03;;
1779;SDS011;10019;46.670;14.260;2023-03-04T10:22:36;5.87;;;5.23;;
1779;SDS011;10019;46.670;14.260;2023-03-04T10:25:16;7.80;;;5.50;;
1779;SDS011;10019;46.670;14.260;2023-03-04T10:27:53;9.77;;;5.80;;
1779;SDS011;10019;46.670;14.260;2023-03-04T10:30:30;7.30;;;5.07;;
1779;SDS011;10019;46.670;14.260;2023-03-04T10:33:13;8.93;;;5.70;;
1779;SDS011;10019;46.670;14.260;2023-03-04T10:35:49;7.57;;;5.33;;
1779;SDS011;10019;46.670;14.260;2023-03-04T10:38:23;10.00;;;6.67;;
1779;SDS011;10019;46.670;14.260;2023-03-04T10:40:55;9.50;;;6.17;;
1779;SDS011;10019;46.670;14.260;2023-03-04T10:43:28;8.60;;;6.07;;
1779;SDS011;10019;46.670;14.260;2023-03-04T10:46:00;11.27;;;5.70;;
1779;SDS011;10019;46.670;14.260;2023-03-04T10:48:32;9.00;;;5.43;;
1779;SDS011;10019;46.670;14.260;2023-03-04T10:51:11;11.03;;;6.70;;
1779;SDS011;10019;46.670;14.260;2023-03-04T10:53:47;9.10;;;6.03;;
1779;SDS011;10019;46.670;14.260;2023-03-04T10:56:30;7.43;;;6.10;;
1779;SDS011;10019;46.670;14.260;2023-03-04T10:59:24;8.60;;;5.57;;
1779;SDS011;10019;46.670;14.260;2023-03-04T11:02:05;7.73;;;5.50;;
1779;SDS011;10019;46.670;14.260;2023-03-04T11:04:48;8.93;;;5.67;;
1779;SDS011;10019;46.670;14.260;2023-03-04T11:07:24;6.30;;;5.23;;
1779;SDS011;10019;46.670;14.260;2023-03-04T11:10:03;11.73;;;5.77;;
1779;SDS011;10019;46.670;14.260;2023-03-04T11:12:38;8.00;;;5.70;;
1779;SDS011;10019;46.670;14.260;2023-03-04T11:15:16;5.93;;;5.03;;
1779;SDS011;10019;46.670;14.260;2023-03-04T11:17:49;5.97;;;4.50;;
1779;SDS011;10019;46.670;14.260;2023-03-04T11:20:27;8.73;;;4.77;;
1779;SDS011;10019;46.670;14.260;2023-03-04T11:23:04;6.83;;;4.77;;
1779;SDS011;10019;46.670;14.260;2023-03-04T11:25:37;6.73;;;5.23;;
1779;SDS011;10019;46.670;14.260;2023-03-04T11:28:12;7.53;;;4.40;;
1779;SDS011;10019;46.670;14.260;2023-03-04T11:30:49;6.20;;;4.70;;
1779;SDS011;10019;46.670;14.260;2023-03-04T11:33:24;7.83;;;4.70;;
1779;SDS011;10019;46.670;14.260;2023-03-04T11:36:03;10.43;;;6.10;;
1779;SDS011;10019;46.670;14.260;2023-03-04T11:38:42;7.83;;;5.20;;
1779;SDS011;10019;46.670;14.260;2023-03-04T11:41:15;13.10;;;6.20;;
1779;SDS011;10019;46.670;14.260;2023-03-04T11:43:49;7.13;;;4.53;;
1779;SDS011;10019;46.670;14.260;2023-03-04T11:49:28;8.73;;;4.60;;
1779;SDS011;10019;46.670;14.260;2023-03-04T11:52:19;10.20;;;4.97;;
1779;SDS011;10019;46.670;14.260;2023-03-04T11:55:03;6.43;;;4.97;;
1779;SDS011;10019;46.670;14.260;2023-03-04T11:57:44;9.33;;;5.77;;
1779;SDS011;10019;46.670;14.260;2023-03-04T12:00:23;7.50;;;4.93;;
1779;SDS011;10019;46.670;14.260;2023-03-04T12:03:21;9.60;;;4.70;;
1779;SDS011;10019;46.670;14.260;2023-03-04T12:06:12;7.37;;;4.90;;
1779;SDS011;10019;46.670;14.260;2023-03-04T12:09:09;7.60;;;4.67;;
1779;SDS011;10019;46.670;14.260;2023-03-04T12:11:52;6.67;;;4.53;;
1779;SDS011;10019;46.670;14.260;2023-03-04T12:14:29;9.33;;;5.20;;
1779;SDS011;10019;46.670;14.260;2023-03-04T12:17:08;9.90;;;4.30;;
1779;SDS011;10019;46.670;14.260;2023-03-04T12:20:13;8.57;;;4.67;;
1779;SDS011;10019;46.670;14.260;2023-03-04T12:22:50;9.40;;;4.17;;
1779;SDS011;10019;46.670;14.260;2023-03-04T12:25:32;9.37;;;5.10;;
1779;SDS011;10019;46.670;14.260;2023-03-04T12:28:14;11.60;;;5.10;;
1779;SDS011;10019;46.670;14.260;2023-03-04T12:31:07;6.20;;;4.50;;
1779;SDS011;10019;46.670;14.260;2023-03-04T12:34:01;7.83;;;4.03;;
1779;SDS011;10019;46.670;14.260;2023-03-04T12:36:43;5.43;;;4.07;;
1779;SDS011;10019;46.670;14.260;2023-03-04T12:39:23;8.50;;;4.10;;
1779;SDS011;10019;46.670;14.260;2023-03-04T12:42:01;7.83;;;4.40;;
1779;SDS011;10019;46.670;14.260;2023-03-04T12:44:41;5.63;;;4.17;;
1779;SDS011;10019;46.670;14.260;2023-03-04T12:47:22;5.93;;;4.10;;
1779;SDS011;10019;46.670;14.260;2023-03-04T12:50:04;5.47;;;3.37;;
1779;SDS011;10019;46.670;14.260;2023-03-04T12:52:56;11.47;;;4.00;;
1779;SDS011;10019;46.670;14.260;2023-03-04T12:55:34;7.07;;;3.50;;
1779;SDS011;10019;46.670;14.260;2023-03-04T12:58:11;5.50;;;3.53;;
1779;SDS011;10019;46.670;14.260;2023-03-04T13:00:48;8.90;;;3.50;;
1779;SDS011;10019;46.670;14.260;2023-03-04T13:03:27;8.17;;;3.57;;
1779;SDS011;10019;46.670;14.260;2023-03-04T13:06:12;6.20;;;3.53;;
1779;SDS011;10019;46.670;14.260;2023-03-04T13:08:54;5.63;;;3.50;;
1779;SDS011;10019;46.670;14.260;2023-03-04T13:17:48;5.23;;;3.30;;
1779;SDS011;10019;46.670;14.260;2023-03-04T13:20:22;14.03;;;3.60;;
1779;SDS011;10019;46.670;14.260;2023-03-04T13:22:55;10.30;;;3.50;;
1779;SDS011;10019;46.670;14.260;2023-03-04T13:25:31;5.47;;;3.47;;
1779;SDS011;10019;46.670;14.260;2023-03-04T13:28:11;6.30;;;4.43;;
1779;SDS011;10019;46.670;14.260;2023-03-04T13:33:48;7.23;;;4.00;;
1779;SDS011;10019;46.670;14.260;2023-03-04T13:36:27;6.63;;;3.77;;
1779;SDS011;10019;46.670;14.260;2023-03-04T13:39:03;8.03;;;4.30;;
1779;SDS011;10019;46.670;14.260;2023-03-04T13:41:53;7.53;;;3.93;;
1779;SDS011;10019;46.670;14.260;2023-03-04T13:44:33;9.77;;;4.60;;
1779;SDS011;10019;46.670;14.260;2023-03-04T13:47:06;11.37;;;4.00;;
1779;SDS011;10019;46.670;14.260;2023-03-04T13:49:40;14.77;;;4.53;;
1779;SDS011;10019;46.670;14.260;2023-03-04T13:52:33;6.43;;;3.87;;
1779;SDS011;10019;46.670;14.260;2023-03-04T13:58:12;6.70;;;3.53;;
1779;SDS011;10019;46.670;14.260;2023-03-04T14:00:48;6.43;;;3.53;;
1779;SDS011;10019;46.670;14.260;2023-03-04T14:03:22;5.87;;;3.87;;
1779;SDS011;10019;46.670;14.260;2023-03-04T14:06:14;6.67;;;3.87;;
1779;SDS011;10019;46.670;14.260;2023-03-04T14:08:48;9.47;;;5.97;;
1779;SDS011;10019;46.670;14.260;2023-03-04T14:11:26;9.00;;;4.07;;
1779;SDS011;10019;46.670;14.260;2023-03-04T14:14:02;11.77;;;4.97;;
1779;SDS011;10019;46.670;14.260;2023-03-04T14:16:37;8.90;;;3.83;;
1779;SDS011;10019;46.670;14.260;2023-03-04T14:19:12;5.93;;;4.00;;
1779;SDS011;10019;46.670;14.260;2023-03-04T14:21:47;8.67;;;4.07;;
1779;SDS011;10019;46.670;14.260;2023-03-04T14:24:20;7.90;;;4.27;;
1779;SDS011;10019;46.670;14.260;2023-03-04T14:27:02;6.60;;;4.30;;
1779;SDS011;10019;46.670;14.260;2023-03-04T14:29:36;10.27;;;4.20;;
1779;SDS011;10019;46.670;14.260;2023-03-04T14:32:09;4.30;;;3.57;;
1779;SDS011;10019;46.670;14.260;2023-03-04T14:34:42;8.90;;;4.03;;
1779;SDS011;10019;46.670;14.260;2023-03-04T14:37:25;7.57;;;4.47;;
1779;SDS011;10019;46.670;14.260;2023-03-04T14:39:57;10.27;;;4.87;;
1779;SDS011;10019;46.670;14.260;2023-03-04T14:42:31;8.37;;;5.20;;
1779;SDS011;10019;46.670;14.260;2023-03-04T14:45:09;4.90;;;4.03;;
1779;SDS011;10019;46.670;14.260;2023-03-04T14:47:43;8.67;;;4.23;;
1779;SDS011;10019;46.670;14.260;2023-03-04T14:50:17;9.07;;;4.37;;
1779;SDS011;10019;46.670;14.260;2023-03-04T14:53:01;6.17;;;3.90;;
1779;SDS011;10019;46.670;14.260;2023-03-04T14:55:35;5.23;;;3.93;;
1779;SDS011;10019;46.670;14.260;2023-03-04T14:58:07;5.83;;;3.80;;
1779;SDS011;10019;46.670;14.260;2023-03-04T15:00:40;6.20;;;3.73;;
1779;SDS011;10019;46.670;14.260;2023-03-04T15:03:17;7.30;;;4.20;;
1779;SDS011;10019;46.670;14.260;2023-03-04T15:05:50;5.03;;;3.50;;
1779;SDS011;10019;46.670;14.260;2023-03-04T15:08:26;7.73;;;3.83;;
1779;SDS011;10019;46.670;14.260;2023-03-04T15:11:00;5.67;;;3.37;;
1779;SDS011;10019;46.670;14.260;2023-03-04T15:13:36;6.07;;;2.93;;
1779;SDS011;10019;46.670;14.260;2023-03-04T15:16:12;4.47;;;3.50;;
1779;SDS011;10019;46.670;14.260;2023-03-04T15:18:55;7.50;;;3.50;;
1779;SDS011;10019;46.670;14.260;2023-03-04T15:21:32;5.90;;;3.90;;
1779;SDS011;10019;46.670;14.260;2023-03-04T15:24:08;8.07;;;3.67;;
1779;SDS011;10019;46.670;14.260;2023-03-04T15:26:42;8.87;;;4.03;;
1779;SDS011;10019;46.670;14.260;2023-03-04T15:29:15;5.27;;;3.47;;
1779;SDS011;10019;46.670;14.260;2023-03-04T15:31:48;11.07;;;4.07;;
1779;SDS011;10019;46.670;14.260;2023-03-04T15:34:20;7.07;;;3.80;;